Time;durP1;ratioP1;P1;durP2;ratioP2;P2;SDS_P1;SDS_P2;PMS_P1;PMS_P2;Temp;Humidity;BMP_temperature;BMP_pressure;BME280_temperature;BME280_humidity;BME280_pressure;Samples;Min_cycle;Max_cycle;Signal;HPM_P1;HPM_P2
2023/03/24 00:00:46;;;;;;;1999.90;200.80;;;11.20;99.90;;;;;;5051880;28;20853;-52
2023/03/24 00:03:16;;;;;;;1999.90;538.60;;;11.20;99.90;;;;;;5038621;28;20225;-52
2023/03/24 00:05:44;;;;;;;1999.90;316.70;;;11.20;99.90;;;;;;5048000;28;20221;-51
2023/03/24 00:08:15;;;;;;;1999.90;377.87;;;11.20;99.90;;;;;;5051728;28;20301;-52
2023/03/24 00:10:46;;;;;;;1999.90;389.63;;;11.20;99.90;;;;;;5052072;28;20284;-52
2023/03/24 00:13:15;;;;;;;1999.90;259.23;;;11.20;99.90;;;;;;5049119;28;20308;-52
2023/03/24 00:15:44;;;;;;;1416.73;180.13;;;11.20;99.90;;;;;;5049253;28;20239;-51
2023/03/24 00:18:12;;;;;;;1860.07;256.40;;;11.20;99.90;;;;;;5051773;28;20713;-51
2023/03/24 00:20:41;;;;;;;1999.90;239.60;;;11.20;99.90;;;;;;5051736;28;20297;-52
2023/03/24 00:23:09;;;;;;;1939.90;207.97;;;11.20;99.90;;;;;;5051838;28;20287;-52
2023/03/24 00:25:38;;;;;;;1330.73;147.80;;;11.20;99.90;;;;;;5050085;28;20256;-52
2023/03/24 00:28:08;;;;;;;1767.33;196.73;;;11.20;99.90;;;;;;5039186;28;20210;-52
2023/03/24 00:30:36;;;;;;;1999.90;195.00;;;11.30;99.90;;;;;;5051627;28;20210;-52
2023/03/24 00:33:04;;;;;;;872.50;105.83;;;11.30;99.90;;;;;;5051564;28;20209;-51
2023/03/24 00:35:33;;;;;;;1999.90;266.97;;;11.30;99.90;;;;;;5051470;28;20233;-51
2023/03/24 00:38:01;;;;;;;1999.90;254.70;;;11.30;99.90;;;;;;5051382;28;20693;-51
2023/03/24 00:40:29;;;;;;;1553.03;149.90;;;11.30;99.90;;;;;;5051297;28;20214;-51
2023/03/24 00:42:58;;;;;;;1228.27;152.30;;;11.30;99.90;;;;;;5050989;28;20237;-51
2023/03/24 00:45:28;;;;;;;1400.03;153.83;;;11.20;99.90;;;;;;5051366;28;20329;-52
2023/03/24 00:47:56;;;;;;;1999.90;323.17;;;11.20;99.90;;;;;;5041343;28;20372;-53
2023/03/24 00:50:25;;;;;;;1536.83;177.07;;;11.20;99.90;;;;;;5051444;28;20206;-52
2023/03/24 00:52:56;;;;;;;1979.40;247.37;;;11.20;99.90;;;;;;5050811;28;20208;-52
2023/03/24 00:55:27;;;;;;;1508.93;158.67;;;11.20;99.90;;;;;;5044926;28;20317;-51
2023/03/24 00:57:56;;;;;;;1288.73;143.90;;;11.10;99.90;;;;;;5046437;28;20742;-51
2023/03/24 01:00:27;;;;;;;1090.20;132.47;;;11.10;99.90;;;;;;5050955;28;20206;-51
2023/03/24 01:02:57;;;;;;;1414.33;182.13;;;11.20;99.90;;;;;;5040619;28;20213;-51
2023/03/24 01:05:27;;;;;;;1999.90;317.90;;;11.10;99.90;;;;;;5048096;28;20241;-52
2023/03/24 01:07:56;;;;;;;1464.03;160.77;;;11.10;99.90;;;;;;5050680;28;20214;-52
2023/03/24 01:10:25;;;;;;;1691.93;190.63;;;11.10;99.90;;;;;;5050724;28;20210;-52
2023/03/24 01:12:56;;;;;;;1536.30;135.67;;;11.10;99.90;;;;;;5046610;28;20312;-52
2023/03/24 01:15:28;;;;;;;1518.37;163.83;;;11.20;99.90;;;;;;5050503;28;20229;-51
2023/03/24 01:17:56;;;;;;;1999.90;335.63;;;11.20;99.90;;;;;;5051001;28;20279;-51
2023/03/24 01:20:24;;;;;;;1501.90;145.23;;;11.10;99.90;;;;;;5045091;28;20202;-51
2023/03/24 01:22:52;;;;;;;834.80;106.77;;;11.20;99.90;;;;;;5050627;28;20209;-52
2023/03/24 01:25:24;;;;;;;1999.90;289.43;;;11.10;99.90;;;;;;5050826;28;20249;-50
2023/03/24 01:27:53;;;;;;;954.83;112.67;;;11.10;99.90;;;;;;5050197;28;20233;-51
2023/03/24 01:30:23;;;;;;;1999.90;270.93;;;11.10;99.90;;;;;;5050675;28;20205;-51
2023/03/24 01:32:53;;;;;;;1590.13;190.67;;;11.10;99.90;;;;;;5050287;28;20198;-52
2023/03/24 01:35:24;;;;;;;1999.90;214.50;;;11.10;99.90;;;;;;5050175;28;20279;-52
2023/03/24 01:37:56;;;;;;;1980.23;240.57;;;11.10;99.90;;;;;;5050075;28;20823;-52
2023/03/24 01:40:27;;;;;;;1769.53;191.57;;;11.10;99.90;;;;;;5050205;28;20205;-52
2023/03/24 01:42:55;;;;;;;1412.93;188.80;;;11.10;99.90;;;;;;5048749;28;20746;-52
2023/03/24 01:45:55;;;;;;;1439.40;166.33;;;11.20;99.90;;;;;;5045331;28;20234;-52
2023/03/24 01:48:28;;;;;;;1384.00;162.07;;;11.10;99.90;;;;;;5024113;28;20251;-50
2023/03/24 01:51:01;;;;;;;1833.53;183.47;;;11.20;99.90;;;;;;5049951;28;20209;-52
2023/03/24 01:53:30;;;;;;;1355.73;144.90;;;11.10;99.90;;;;;;5049880;28;20305;-52
2023/03/24 01:56:00;;;;;;;1999.90;321.50;;;11.20;99.90;;;;;;5050085;28;20237;-52
2023/03/24 01:58:30;;;;;;;1999.90;309.63;;;11.20;99.90;;;;;;5045897;28;20319;-52
2023/03/24 02:00:58;;;;;;;1999.90;284.07;;;11.20;99.90;;;;;;5049814;28;20210;-51
2023/03/24 02:03:33;;;;;;;1443.50;181.43;;;11.20;99.90;;;;;;5036119;28;20301;-52
2023/03/24 02:06:02;;;;;;;1475.10;147.53;;;11.20;99.90;;;;;;5044571;28;20222;-51
2023/03/24 02:08:36;;;;;;;1917.00;203.23;;;11.20;99.90;;;;;;5054523;28;20205;-52
2023/03/24 02:11:05;;;;;;;1888.57;221.70;;;11.20;99.90;;;;;;5040329;28;20289;-51
2023/03/24 02:13:33;;;;;;;1999.90;271.77;;;11.20;99.90;;;;;;5049068;28;20240;-52
2023/03/24 02:16:13;;;;;;;1999.90;216.97;;;11.20;99.90;;;;;;5045122;28;20237;-52
2023/03/24 02:18:51;;;;;;;1999.90;252.87;;;11.20;99.90;;;;;;5049351;28;20217;-52
2023/03/24 02:22:01;;;;;;;1594.13;185.90;;;11.20;99.90;;;;;;5049210;28;20287;-52
2023/03/24 02:25:03;;;;;;;1999.90;235.80;;;11.20;99.90;;;;;;5032157;28;20260;-52
2023/03/24 02:27:51;;;;;;;1999.90;293.70;;;11.20;99.90;;;;;;5018350;28;20293;-52
2023/03/24 02:30:33;;;;;;;1999.90;203.63;;;11.20;99.90;;;;;;5046824;28;20302;-52
2023/03/24 02:33:30;;;;;;;1577.20;198.80;;;11.20;99.90;;;;;;5049114;28;20303;-51
2023/03/24 02:36:33;;;;;;;1924.77;200.03;;;11.10;99.90;;;;;;5025876;28;20226;-52
2023/03/24 02:39:31;;;;;;;1999.90;393.53;;;11.10;99.90;;;;;;5025811;28;20284;-51
2023/03/24 02:42:07;;;;;;;1875.90;206.80;;;11.20;99.90;;;;;;5043745;28;20293;-51
2023/03/24 02:44:42;;;;;;;1112.27;131.00;;;11.20;99.90;;;;;;5049281;28;20599;-53
2023/03/24 02:47:16;;;;;;;511.30;71.97;;;11.20;99.90;;;;;;5049154;28;20288;-52
2023/03/24 02:49:54;;;;;;;1833.27;181.63;;;11.10;99.90;;;;;;5049343;28;20296;-51
2023/03/24 02:52:29;;;;;;;1999.90;472.90;;;11.20;99.90;;;;;;5049161;28;20205;-52
2023/03/24 02:55:02;;;;;;;1452.97;150.47;;;11.10;99.90;;;;;;5049294;28;20225;-52
2023/03/24 02:57:35;;;;;;;1860.40;218.53;;;11.10;99.90;;;;;;5036969;28;20256;-52
2023/03/24 03:00:12;;;;;;;1695.37;204.23;;;11.10;99.90;;;;;;5048004;28;20611;-52
2023/03/24 03:02:44;;;;;;;1829.97;178.10;;;11.10;99.90;;;;;;5045896;28;20873;-51
2023/03/24 03:05:17;;;;;;;1999.90;339.00;;;11.10;99.90;;;;;;5049127;28;20236;-51
2023/03/24 03:07:47;;;;;;;1045.70;104.83;;;11.10;99.90;;;;;;5049089;28;20200;-52
2023/03/24 03:10:22;;;;;;;1999.90;288.33;;;11.10;99.90;;;;;;5048944;28;20617;-50
2023/03/24 03:12:54;;;;;;;1735.70;213.03;;;11.10;99.90;;;;;;5046619;28;20336;-52
2023/03/24 03:15:25;;;;;;;792.93;92.00;;;11.10;99.90;;;;;;5037414;28;20248;-52
2023/03/24 03:17:58;;;;;;;1999.90;262.43;;;11.10;99.90;;;;;;5048945;28;20297;-52
2023/03/24 03:20:33;;;;;;;1999.90;461.77;;;11.10;99.90;;;;;;5048788;28;20210;-51
2023/03/24 03:23:06;;;;;;;1273.23;143.10;;;11.10;99.90;;;;;;5048465;28;20259;-51
2023/03/24 03:25:41;;;;;;;1999.90;333.47;;;11.10;99.90;;;;;;5043431;28;20818;-52
2023/03/24 03:28:11;;;;;;;1999.90;306.50;;;11.10;99.90;;;;;;5044667;28;20207;-52
2023/03/24 03:30:43;;;;;;;1999.90;337.40;;;11.10;99.90;;;;;;5044232;28;20312;-51
2023/03/24 03:33:23;;;;;;;676.93;74.70;;;11.10;99.90;;;;;;5048815;28;20206;-52
2023/03/24 03:35:56;;;;;;;1999.90;247.63;;;11.10;99.90;;;;;;5041895;28;20239;-52
2023/03/24 03:38:31;;;;;;;1999.90;375.00;;;11.10;99.90;;;;;;5047001;28;20214;-52
2023/03/24 03:41:04;;;;;;;1963.20;236.17;;;11.10;99.90;;;;;;5052790;28;20338;-52
2023/03/24 03:43:33;;;;;;;1075.03;105.97;;;11.10;99.90;;;;;;5039464;28;20206;-51
2023/03/24 03:46:05;;;;;;;1209.83;168.73;;;11.10;99.90;;;;;;5052173;28;20710;-52
2023/03/24 03:48:33;;;;;;;1999.90;496.50;;;11.20;99.90;;;;;;5052515;28;20267;-51
2023/03/24 03:51:02;;;;;;;1996.90;207.53;;;11.10;99.90;;;;;;5052420;28;20296;-52
2023/03/24 03:53:46;;;;;;;1999.90;243.60;;;11.10;99.90;;;;;;5052271;28;20205;-52
2023/03/24 03:56:18;;;;;;;1757.73;174.57;;;11.10;99.90;;;;;;5052028;28;20229;-51
2023/03/24 03:58:47;;;;;;;1179.73;147.23;;;11.20;99.90;;;;;;5048891;28;20260;-52
2023/03/24 04:01:18;;;;;;;1040.50;129.60;;;11.20;99.90;;;;;;5040621;28;20237;-52
2023/03/24 04:04:04;;;;;;;1999.90;230.00;;;11.10;99.90;;;;;;5042515;28;20651;-52
2023/03/24 04:06:39;;;;;;;1993.43;252.10;;;11.20;99.90;;;;;;5051962;28;20292;-52
2023/03/24 04:09:23;;;;;;;1999.90;292.70;;;11.10;99.90;;;;;;5051718;28;20263;-52
2023/03/24 04:12:19;;;;;;;1999.90;392.83;;;11.10;99.90;;;;;;5052170;28;20252;-52
2023/03/24 04:15:12;;;;;;;1999.90;341.60;;;11.10;99.90;;;;;;5033202;28;20257;-51
2023/03/24 04:18:21;;;;;;;1125.37;117.63;;;11.10;99.90;;;;;;5049655;28;20864;-51
2023/03/24 04:21:03;;;;;;;1999.90;251.57;;;11.10;99.90;;;;;;5035637;28;20301;-51
2023/03/24 04:23:38;;;;;;;1310.83;163.73;;;11.10;99.90;;;;;;5051291;28;20304;-52
2023/03/24 04:26:25;;;;;;;1999.90;296.07;;;11.10;99.90;;;;;;5044962;28;20370;-52
2023/03/24 04:29:07;;;;;;;1999.90;315.70;;;11.10;99.90;;;;;;5048907;28;20810;-52
2023/03/24 04:31:41;;;;;;;1550.03;163.07;;;11.10;99.90;;;;;;5051252;28;20753;-51
2023/03/24 04:34:16;;;;;;;1151.50;110.97;;;11.10;99.90;;;;;;5040776;28;20579;-52
2023/03/24 04:36:49;;;;;;;1408.33;159.73;;;11.10;99.90;;;;;;5046910;28;20320;-52
2023/03/24 04:39:27;;;;;;;1467.37;152.67;;;11.10;99.90;;;;;;5051897;28;20556;-52
2023/03/24 04:41:57;;;;;;;1999.90;342.07;;;11.10;99.90;;;;;;5051536;28;20779;-51
2023/03/24 04:44:27;;;;;;;1999.90;196.33;;;11.20;99.90;;;;;;5050796;28;20789;-51
2023/03/24 04:46:57;;;;;;;1326.33;146.07;;;11.10;99.90;;;;;;5051488;28;20293;-52
2023/03/24 04:49:26;;;;;;;1999.90;361.47;;;11.10;99.90;;;;;;5051274;28;20206;-51
2023/03/24 04:51:54;;;;;;;1999.90;636.30;;;11.10;99.90;;;;;;5051088;28;20221;-52
2023/03/24 04:54:23;;;;;;;1999.90;366.20;;;11.20;99.90;;;;;;5051206;28;20210;-52
2023/03/24 04:56:53;;;;;;;1999.90;330.57;;;11.10;99.90;;;;;;5051036;28;20685;-52
2023/03/24 04:59:21;;;;;;;1991.40;235.13;;;11.10;99.90;;;;;;5051177;28;20217;-51
2023/03/24 05:01:50;;;;;;;1999.90;421.53;;;11.10;99.90;;;;;;5051053;28;20232;-52
2023/03/24 05:04:19;;;;;;;1999.90;285.40;;;11.10;99.90;;;;;;5051013;28;20213;-51
2023/03/24 05:06:48;;;;;;;1999.90;424.70;;;11.10;99.90;;;;;;5050810;28;20214;-51
2023/03/24 05:09:17;;;;;;;1999.90;231.70;;;11.10;99.90;;;;;;5050823;28;20301;-52
2023/03/24 05:11:45;;;;;;;1999.90;493.73;;;11.20;99.90;;;;;;5050804;28;20236;-51
2023/03/24 05:14:13;;;;;;;1999.90;211.77;;;11.20;99.90;;;;;;5037585;28;20205;-51
2023/03/24 05:16:41;;;;;;;1999.90;498.83;;;11.20;99.90;;;;;;5049778;28;20292;-51
2023/03/24 05:19:11;;;;;;;1999.90;484.67;;;11.20;99.90;;;;;;5038810;28;20241;-52
2023/03/24 05:21:40;;;;;;;1999.90;486.10;;;11.20;99.90;;;;;;5048656;28;20206;-52
2023/03/24 05:24:08;;;;;;;1999.90;318.30;;;11.10;99.90;;;;;;5042533;28;20215;-51
2023/03/24 05:26:36;;;;;;;1999.90;413.20;;;11.10;99.90;;;;;;5051559;28;20849;-52
2023/03/24 05:29:04;;;;;;;1999.90;218.77;;;11.20;99.90;;;;;;5051792;28;20669;-52
2023/03/24 05:31:32;;;;;;;1999.90;325.93;;;11.20;99.90;;;;;;5051380;28;20313;-52
2023/03/24 05:34:00;;;;;;;1746.03;179.30;;;11.20;99.90;;;;;;5051355;28;20605;-52
2023/03/24 05:36:30;;;;;;;1999.90;359.73;;;11.20;99.90;;;;;;5050922;28;20643;-51
2023/03/24 05:38:58;;;;;;;1999.90;352.53;;;11.20;99.90;;;;;;5050219;28;20229;-52
2023/03/24 05:41:26;;;;;;;1999.90;364.03;;;11.20;99.90;;;;;;5050445;28;20213;-51
2023/03/24 05:43:54;;;;;;;1706.93;178.50;;;11.20;99.90;;;;;;5049864;28;20292;-52
2023/03/24 05:46:22;;;;;;;1999.90;384.00;;;11.20;99.90;;;;;;5050017;28;20593;-51
2023/03/24 05:48:53;;;;;;;1999.90;412.30;;;11.20;99.90;;;;;;5049794;28;20691;-51
2023/03/24 05:51:21;;;;;;;1999.90;296.23;;;11.20;99.90;;;;;;5047964;28;20296;-51
2023/03/24 05:53:50;;;;;;;1999.90;330.67;;;11.20;99.90;;;;;;5047083;28;20289;-52
2023/03/24 05:56:19;;;;;;;1999.90;449.17;;;11.30;99.90;;;;;;5040494;28;20226;-51
2023/03/24 05:58:47;;;;;;;1999.90;729.93;;;11.20;99.90;;;;;;5045656;28;20313;-52
2023/03/24 06:01:17;;;;;;;1999.90;281.87;;;11.20;99.90;;;;;;5050074;28;20210;-51
2023/03/24 06:03:45;;;;;;;1747.73;180.60;;;11.20;99.90;;;;;;5049834;28;20206;-52
2023/03/24 06:06:13;;;;;;;1999.90;304.23;;;11.20;99.90;;;;;;5049788;28;20222;-52
2023/03/24 06:08:43;;;;;;;1414.73;153.43;;;11.30;99.90;;;;;;5049854;28;20292;-52
2023/03/24 06:11:13;;;;;;;1999.90;306.77;;;11.30;99.90;;;;;;5035878;28;21038;-52
2023/03/24 06:13:41;;;;;;;1942.80;241.33;;;11.30;99.90;;;;;;5039294;28;20214;-51
2023/03/24 06:16:10;;;;;;;1999.90;317.67;;;11.40;99.90;;;;;;5044312;28;20344;-52
2023/03/24 06:18:39;;;;;;;1093.10;117.10;;;11.40;99.90;;;;;;5024776;28;20595;-52
2023/03/24 06:21:07;;;;;;;1999.90;444.63;;;11.40;99.90;;;;;;5049139;28;20216;-51
2023/03/24 06:23:35;;;;;;;1999.90;245.70;;;11.40;99.90;;;;;;5022019;28;20292;-52
2023/03/24 06:26:09;;;;;;;1999.90;408.50;;;11.40;99.90;;;;;;5036727;28;20238;-51
2023/03/24 06:28:40;;;;;;;1999.90;272.17;;;11.40;99.90;;;;;;5048667;28;20706;-51
2023/03/24 06:31:13;;;;;;;1750.40;206.97;;;11.40;99.90;;;;;;5049646;28;20275;-51
2023/03/24 06:33:42;;;;;;;1999.90;320.77;;;11.40;99.90;;;;;;5047309;28;20740;-51
2023/03/24 06:36:12;;;;;;;1999.90;295.80;;;11.50;99.90;;;;;;5049598;28;20308;-51
2023/03/24 06:38:40;;;;;;;1999.90;353.40;;;11.50;99.90;;;;;;5049201;28;20312;-52
2023/03/24 06:41:09;;;;;;;1999.90;603.17;;;11.50;99.90;;;;;;5049455;28;20597;-51
2023/03/24 06:43:38;;;;;;;1999.90;540.63;;;11.60;99.90;;;;;;5049195;28;20285;-52
2023/03/24 06:46:07;;;;;;;1999.90;481.90;;;11.60;99.90;;;;;;5049085;28;20789;-52
2023/03/24 06:48:35;;;;;;;1999.90;810.53;;;11.70;99.90;;;;;;5049245;28;20217;-52
2023/03/24 06:51:04;;;;;;;1999.90;710.90;;;11.70;99.90;;;;;;5049056;28;20216;-52
2023/03/24 06:53:32;;;;;;;1999.90;462.33;;;11.70;99.90;;;;;;5048841;28;20292;-52
2023/03/24 06:56:00;;;;;;;1999.90;558.40;;;11.70;99.90;;;;;;5037404;28;20248;-52
2023/03/24 06:58:27;;;;;;;1999.90;521.30;;;11.70;99.90;;;;;;5049281;28;20644;-53
2023/03/24 07:00:58;;;;;;;1999.90;525.27;;;11.70;99.90;;;;;;5048965;28;20212;-53
2023/03/24 07:03:27;;;;;;;1999.90;426.13;;;11.70;99.90;;;;;;5037638;28;20625;-52
2023/03/24 07:05:56;;;;;;;1999.90;526.80;;;11.70;99.90;;;;;;5047457;28;20232;-53
2023/03/24 07:08:24;;;;;;;1673.43;178.57;;;11.60;99.90;;;;;;5048861;28;20237;-52
2023/03/24 07:11:06;;;;;;;1563.13;173.80;;;11.70;99.90;;;;;;5048768;28;20614;-52
2023/03/24 07:13:34;;;;;;;1999.90;300.57;;;11.70;99.90;;;;;;5040815;28;20600;-52
2023/03/24 07:16:04;;;;;;;1951.50;233.13;;;11.80;99.90;;;;;;5042944;28;20465;-52
2023/03/24 07:18:32;;;;;;;1999.90;376.20;;;11.90;99.90;;;;;;5048378;28;20233;-53
2023/03/24 07:21:00;;;;;;;1999.90;964.93;;;11.90;99.90;;;;;;5042759;28;20213;-52
2023/03/24 07:23:29;;;;;;;1999.90;649.63;;;12.00;99.90;;;;;;5044011;28;20202;-52
2023/03/24 07:25:57;;;;;;;1999.90;497.57;;;11.90;99.90;;;;;;5040509;28;20225;-53
2023/03/24 07:28:25;;;;;;;1503.53;219.63;;;11.80;99.90;;;;;;5041806;28;20232;-52
2023/03/24 07:30:53;;;;;;;1999.90;298.87;;;11.60;99.90;;;;;;5048722;28;20268;-53
2023/03/24 07:33:24;;;;;;;1999.90;505.73;;;11.60;99.90;;;;;;5048535;28;20220;-52
2023/03/24 07:35:54;;;;;;;1999.90;559.30;;;11.40;99.90;;;;;;5048593;28;20312;-52
2023/03/24 07:38:23;;;;;;;1999.90;320.40;;;11.40;99.90;;;;;;5048610;28;20283;-52
2023/03/24 07:40:51;;;;;;;1999.90;280.13;;;11.50;99.90;;;;;;5046702;28;20305;-52
2023/03/24 07:43:19;;;;;;;1999.90;576.33;;;11.50;99.90;;;;;;5048002;28;20217;-52
2023/03/24 07:45:47;;;;;;;696.57;79.83;;;11.60;99.90;;;;;;5048340;28;20264;-51
2023/03/24 07:48:15;;;;;;;1934.73;316.43;;;11.70;99.90;;;;;;5048464;28;20216;-52
2023/03/24 07:50:45;;;;;;;1999.90;414.53;;;11.60;99.90;;;;;;5048143;28;20690;-52
2023/03/24 07:53:17;;;;;;;1476.73;172.20;;;11.80;99.90;;;;;;5048148;28;20686;-52
2023/03/24 07:55:45;;;;;;;1855.13;293.17;;;11.80;99.90;;;;;;5048073;28;20780;-52
2023/03/24 07:58:13;;;;;;;499.73;68.50;;;11.90;99.90;;;;;;5043751;28;20214;-52
2023/03/24 08:00:41;;;;;;;853.63;135.43;;;12.00;99.90;;;;;;5046535;28;20206;-52
2023/03/24 08:03:12;;;;;;;466.27;51.50;;;12.00;99.90;;;;;;5038290;28;20213;-52
2023/03/24 08:05:42;;;;;;;669.10;104.20;;;12.00;99.90;;;;;;5048417;28;20233;-52
2023/03/24 08:08:11;;;;;;;1444.03;174.57;;;12.10;99.90;;;;;;5047989;28;20263;-51
2023/03/24 08:10:39;;;;;;;924.63;113.60;;;12.00;99.90;;;;;;5047899;28;20296;-51
2023/03/24 08:13:07;;;;;;;702.23;100.87;;;12.00;99.90;;;;;;5025828;28;20935;-51
2023/03/24 08:15:36;;;;;;;1291.50;158.97;;;11.90;99.90;;;;;;5038392;28;20261;-52
2023/03/24 08:18:05;;;;;;;1143.57;134.27;;;11.90;99.90;;;;;;5043504;28;20220;-52
2023/03/24 08:20:33;;;;;;;1993.10;234.40;;;11.90;99.90;;;;;;5050120;28;20237;-51
2023/03/24 08:23:03;;;;;;;1999.90;297.37;;;11.80;99.90;;;;;;5049874;28;20205;-52
2023/03/24 08:25:34;;;;;;;1236.63;170.73;;;11.80;99.90;;;;;;5051039;28;20240;-52
2023/03/24 08:28:03;;;;;;;1572.73;176.37;;;11.80;99.90;;;;;;5040406;28;20659;-52
2023/03/24 08:30:31;;;;;;;1298.00;153.77;;;11.80;99.90;;;;;;5044650;28;20229;-52
2023/03/24 08:33:01;;;;;;;1792.27;223.30;;;11.80;99.90;;;;;;5044237;28;20209;-52
2023/03/24 08:35:31;;;;;;;1508.03;189.50;;;11.90;99.90;;;;;;5028142;28;20235;-52
2023/03/24 08:38:00;;;;;;;1192.90;157.33;;;12.00;99.90;;;;;;5051611;28;20201;-52
2023/03/24 08:40:37;;;;;;;1724.53;233.80;;;12.00;99.90;;;;;;5051116;28;20221;-52
2023/03/24 08:43:07;;;;;;;1790.40;206.00;;;12.20;99.90;;;;;;5044447;28;20210;-51
2023/03/24 08:45:36;;;;;;;1127.33;142.40;;;12.10;99.90;;;;;;5050368;28;20235;-53
2023/03/24 08:48:06;;;;;;;1082.47;140.53;;;12.10;99.90;;;;;;5051320;28;20245;-53
2023/03/24 08:50:38;;;;;;;1999.90;423.23;;;12.10;99.90;;;;;;5051407;28;20222;-52
2023/03/24 08:53:06;;;;;;;1829.47;246.73;;;12.00;99.90;;;;;;5033487;28;20237;-52
2023/03/24 08:55:40;;;;;;;1999.90;306.57;;;12.00;99.90;;;;;;5047872;28;20251;-52
2023/03/24 08:58:08;;;;;;;1999.90;451.70;;;12.00;99.90;;;;;;5051402;28;20255;-52
2023/03/24 09:00:36;;;;;;;624.07;80.80;;;12.00;99.90;;;;;;5050816;28;20261;-52
2023/03/24 09:03:05;;;;;;;1275.67;192.57;;;12.10;99.90;;;;;;5050948;28;20296;-52
2023/03/24 09:05:33;;;;;;;1999.90;363.73;;;12.10;99.90;;;;;;5050429;28;20786;-51
2023/03/24 09:08:12;;;;;;;1192.70;163.20;;;12.30;99.90;;;;;;5051019;28;20255;-49
2023/03/24 09:10:41;;;;;;;1261.50;151.87;;;12.30;99.90;;;;;;5050930;28;20209;-49
2023/03/24 09:13:10;;;;;;;1999.90;425.60;;;12.40;99.90;;;;;;5045928;28;20289;-49
2023/03/24 09:15:38;;;;;;;1079.47;160.23;;;12.30;99.90;;;;;;5041532;28;20229;-50
2023/03/24 09:18:06;;;;;;;1096.13;171.07;;;12.30;99.90;;;;;;5050749;28;20275;-48
2023/03/24 09:20:35;;;;;;;1006.80;180.13;;;12.30;99.90;;;;;;5050204;28;20233;-49
2023/03/24 09:23:03;;;;;;;1451.10;248.00;;;12.20;99.90;;;;;;5050414;28;20220;-49
2023/03/24 09:25:31;;;;;;;1999.90;471.43;;;12.20;99.90;;;;;;5050471;28;20320;-49
2023/03/24 09:28:00;;;;;;;1992.20;591.17;;;12.10;99.90;;;;;;5050667;28;20214;-49
2023/03/24 09:30:28;;;;;;;1999.90;486.77;;;11.90;99.90;;;;;;5050315;28;20197;-49
2023/03/24 09:32:59;;;;;;;1999.90;385.17;;;11.90;99.90;;;;;;5050581;28;20667;-50
2023/03/24 09:35:27;;;;;;;1999.90;545.63;;;11.80;99.90;;;;;;5050071;28;20226;-49
2023/03/24 09:37:56;;;;;;;1999.90;471.90;;;11.70;99.90;;;;;;5038590;28;20297;-50
2023/03/24 09:40:25;;;;;;;1999.90;624.43;;;11.60;99.90;;;;;;5048767;28;20312;-49
2023/03/24 09:43:01;;;;;;;1999.90;584.93;;;11.50;99.90;;;;;;5043226;28;20206;-49
2023/03/24 09:45:36;;;;;;;1999.90;424.43;;;11.40;99.90;;;;;;5049785;28;20844;-48
2023/03/24 09:48:11;;;;;;;1999.90;332.57;;;11.40;99.90;;;;;;5050099;28;20212;-49
2023/03/24 09:50:46;;;;;;;1245.80;186.47;;;11.40;99.90;;;;;;5049821;28;20709;-49
2023/03/24 09:53:26;;;;;;;1427.23;174.63;;;11.30;99.90;;;;;;5050316;28;20209;-49
2023/03/24 09:55:55;;;;;;;1999.90;593.50;;;11.30;99.90;;;;;;5050590;28;20847;-49
2023/03/24 09:58:27;;;;;;;1932.40;285.57;;;11.30;99.90;;;;;;5050600;28;20637;-50
2023/03/24 10:00:56;;;;;;;1999.90;268.33;;;11.40;99.90;;;;;;5049630;28;20277;-50
2023/03/24 10:03:24;;;;;;;1999.90;312.57;;;11.50;99.90;;;;;;5034567;28;20202;-49
2023/03/24 10:05:58;;;;;;;1962.33;272.10;;;11.70;99.90;;;;;;5048352;28;20225;-49
2023/03/24 10:08:32;;;;;;;1999.90;600.90;;;11.90;99.90;;;;;;5041518;28;20290;-50
2023/03/24 10:11:04;;;;;;;1925.03;252.23;;;12.00;99.90;;;;;;5029641;28;20812;-50
2023/03/24 10:13:43;;;;;;;1999.90;481.60;;;12.10;99.90;;;;;;5030132;28;20250;-49
2023/03/24 10:16:20;;;;;;;1999.90;326.37;;;12.20;99.90;;;;;;5029471;28;20226;-50
2023/03/24 10:18:56;;;;;;;1999.90;598.73;;;12.30;99.90;;;;;;5030336;28;20206;-50
2023/03/24 10:21:26;;;;;;;1999.90;390.93;;;12.20;99.90;;;;;;5032816;28;20321;-49
2023/03/24 10:24:02;;;;;;;1999.90;534.50;;;12.20;99.90;;;;;;5031840;28;20289;-48
2023/03/24 10:26:40;;;;;;;1957.43;372.70;;;12.20;99.90;;;;;;5033167;28;20265;-49
2023/03/24 10:29:21;;;;;;;1999.90;353.07;;;12.30;99.90;;;;;;5029851;28;20341;-49
2023/03/24 10:31:54;;;;;;;1999.90;733.70;;;12.40;99.90;;;;;;5034148;28;20203;-49
2023/03/24 10:34:25;;;;;;;1999.90;535.70;;;12.50;99.90;;;;;;5039071;28;20206;-49
2023/03/24 10:36:53;;;;;;;1999.90;574.73;;;12.60;99.90;;;;;;5035796;28;20293;-50
2023/03/24 10:39:21;;;;;;;1999.90;730.50;;;12.80;99.90;;;;;;5033797;28;20687;-49
2023/03/24 10:42:15;;;;;;;1999.90;715.87;;;12.90;99.90;;;;;;5029436;28;20575;-50
2023/03/24 10:44:44;;;;;;;1999.90;552.90;;;13.00;99.90;;;;;;5029163;28;20218;-50
2023/03/24 10:47:16;;;;;;;1999.90;522.03;;;13.00;99.90;;;;;;5029449;28;20289;-50
2023/03/24 10:49:53;;;;;;;1999.90;389.40;;;13.10;99.90;;;;;;5029179;28;20264;-49
2023/03/24 10:52:23;;;;;;;1999.90;510.33;;;13.20;99.90;;;;;;5029128;28;20233;-50
2023/03/24 10:54:56;;;;;;;1999.90;515.95;;;13.30;99.90;;;;;;5028886;28;20823;-49
2023/03/24 10:57:26;;;;;;;1999.90;601.17;;;13.40;99.90;;;;;;5028953;28;20217;-50
2023/03/24 10:59:56;;;;;;;1999.90;860.07;;;13.50;99.90;;;;;;5029062;28;20293;-50
2023/03/24 11:02:29;;;;;;;1999.90;742.22;;;13.50;99.90;;;;;;5028791;28;20668;-50
2023/03/24 11:05:01;;;;;;;1999.90;760.83;;;13.40;99.90;;;;;;5028711;28;20303;-50
2023/03/24 11:07:33;;;;;;;1999.90;491.17;;;13.20;99.90;;;;;;5028596;28;20680;-50
2023/03/24 11:10:06;;;;;;;1999.90;358.30;;;13.40;99.90;;;;;;5028777;28;20211;-50
2023/03/24 11:12:36;;;;;;;1999.90;726.33;;;13.50;99.90;;;;;;5028882;28;20210;-50
2023/03/24 11:15:16;;;;;;;1999.90;623.85;;;13.30;99.90;;;;;;5021589;28;20275;-50
2023/03/24 11:17:55;;;;;;;1999.90;672.37;;;13.00;99.90;;;;;;5040134;28;20259;-50
2023/03/24 11:20:29;;;;;;;1999.90;749.30;;;12.80;99.90;;;;;;5048885;28;20303;-50
2023/03/24 11:23:03;;;;;;;1849.77;229.00;;;12.60;99.90;;;;;;5032641;28;20214;-49
2023/03/24 11:25:34;;;;;;;1999.90;328.73;;;12.60;99.90;;;;;;5048833;28;20659;-50
2023/03/24 11:28:07;;;;;;;1999.90;546.80;;;12.90;99.90;;;;;;5047228;28;20288;-49
2023/03/24 11:30:45;;;;;;;1999.90;604.00;;;13.20;99.90;;;;;;5044658;28;20204;-50
2023/03/24 11:33:21;;;;;;;1999.90;556.60;;;13.50;99.90;;;;;;5047243;28;20209;-50
2023/03/24 11:36:41;;;;;;;1999.90;603.13;;;13.70;99.90;;;;;;5029868;28;20656;-50
2023/03/24 11:39:17;;;;;;;1999.90;954.90;;;13.80;99.90;;;;;;5031142;28;20213;-50
2023/03/24 11:41:53;;;;;;;1999.90;328.58;;;14.10;99.90;;;;;;5048517;28;20303;-49
2023/03/24 11:44:23;;;;;;;1999.90;523.00;;;14.00;99.90;;;;;;5048408;28;20311;-50
2023/03/24 11:46:55;;;;;;;1999.90;562.20;;;13.90;99.90;;;;;;5048643;28;20289;-50
2023/03/24 11:49:28;;;;;;;1999.90;538.33;;;14.00;99.90;;;;;;5048521;28;20296;-50
2023/03/24 11:51:57;;;;;;;1999.90;655.38;;;14.20;99.90;;;;;;5034601;28;20755;-50
2023/03/24 11:54:29;;;;;;;1999.90;722.42;;;14.60;99.90;;;;;;5047653;28;20259;-50
2023/03/24 11:57:04;;;;;;;1999.90;967.25;;;14.80;99.90;;;;;;5035384;28;20198;-49
2023/03/24 11:59:37;;;;;;;1999.90;882.28;;;14.90;99.90;;;;;;5042506;28;20210;-50
2023/03/24 12:02:15;;;;;;;1999.90;844.67;;;14.70;99.90;;;;;;5047112;28;20261;-50
2023/03/24 12:04:59;;;;;;;1999.90;638.33;;;14.60;99.90;;;;;;5052336;28;20236;-49
2023/03/24 12:08:04;;;;;;;1999.90;934.38;;;14.70;99.90;;;;;;5051782;28;20233;-50
2023/03/24 12:10:44;;;;;;;1999.90;999.90;;;14.90;99.90;;;;;;5051545;28;20237;-49
2023/03/24 12:13:15;;;;;;;1999.90;916.00;;;15.10;99.90;;;;;;5036924;28;20214;-49
2023/03/24 12:16:12;;;;;;;1999.90;676.40;;;15.10;99.90;;;;;;5045383;28;20227;-50
2023/03/24 12:19:13;;;;;;;1999.90;756.05;;;15.20;99.90;;;;;;5051911;28;20697;-50
2023/03/24 12:21:51;;;;;;;1999.90;999.30;;;15.30;99.90;;;;;;5025349;28;20239;-50
2023/03/24 12:24:32;;;;;;;1999.90;999.90;;;15.00;99.90;;;;;;5051615;28;20659;-49